createdAt,value
2023-04-10T00:04:38.423Z,2.92
2023-04-10T00:09:41.356Z,3.01
2023-04-10T00:14:43.738Z,2.88
2023-04-10T00:19:46.897Z,2.82
2023-04-10T00:24:49.341Z,2.81
2023-04-10T00:29:52.535Z,2.69
2023-04-10T00:34:57.466Z,2.59
2023-04-10T00:39:59.936Z,2.59
2023-04-10T00:45:03.098Z,2.47
2023-04-10T00:50:05.594Z,2.41
2023-04-10T00:55:07.890Z,2.51
2023-04-10T01:00:10.220Z,2.38
2023-04-10T01:05:12.607Z,2.22
2023-04-10T01:10:15.768Z,2.14
2023-04-10T01:15:18.166Z,2.05
2023-04-10T01:20:21.404Z,2.00
2023-04-10T01:25:24.170Z,1.96
2023-04-10T01:30:28.325Z,1.99
2023-04-10T01:35:31.564Z,1.99
2023-04-10T01:40:35.589Z,2.12
2023-04-10T01:45:38.297Z,2.07
2023-04-10T01:50:40.687Z,1.86
2023-04-10T01:55:43.842Z,1.74
2023-04-10T02:00:47.067Z,1.65
2023-04-10T02:05:49.445Z,1.62
2023-04-10T02:10:52.154Z,1.49
2023-04-10T02:15:54.445Z,1.52
2023-04-10T02:20:57.658Z,1.40
2023-04-10T02:26:00.305Z,1.37
2023-04-10T02:31:03.555Z,1.31
2023-04-10T02:36:07.355Z,1.31
2023-04-10T02:41:10.066Z,1.29
2023-04-10T02:46:12.490Z,1.29
2023-04-10T02:51:15.346Z,1.39
2023-04-10T02:56:19.031Z,1.33
2023-04-10T03:01:22.286Z,1.33
2023-04-10T03:06:27.349Z,1.33
2023-04-10T03:11:30.614Z,1.30
2023-04-10T03:16:33.377Z,1.25
2023-04-10T03:21:35.965Z,1.23
2023-04-10T03:26:38.866Z,1.14
2023-04-10T03:31:41.322Z,1.20
2023-04-10T03:36:44.519Z,1.09
2023-04-10T03:41:47.583Z,1.04
2023-04-10T03:46:49.942Z,1.03
2023-04-10T03:51:52.806Z,1.02
2023-04-10T03:56:56.611Z,0.97
2023-04-10T04:01:59.084Z,1.02
2023-04-10T04:07:01.487Z,1.10
2023-04-10T04:12:04.190Z,1.02
2023-04-10T04:17:07.312Z,0.94
2023-04-10T04:22:09.669Z,0.91
2023-04-10T04:27:12.745Z,0.84
2023-04-10T04:32:16.038Z,0.83
2023-04-10T04:37:19.273Z,0.91
2023-04-10T04:42:22.081Z,0.80
2023-04-10T04:47:25.476Z,0.85
2023-04-10T04:52:28.075Z,0.99
2023-04-10T04:57:31.239Z,1.32
2023-04-10T05:02:33.965Z,1.67
2023-04-10T05:07:37.293Z,1.84
2023-04-10T05:12:41.847Z,2.09
2023-04-10T05:17:44.423Z,2.48
2023-04-10T05:22:47.707Z,2.63
2023-04-10T05:27:50.921Z,3.06
2023-04-10T05:32:56.198Z,3.53
2023-04-10T05:38:00.534Z,3.94
2023-04-10T05:43:02.941Z,4.15
2023-04-10T05:48:05.437Z,4.59
2023-04-10T05:53:08.120Z,4.57
2023-04-10T05:58:11.393Z,4.71
2023-04-10T06:03:14.672Z,4.54
2023-04-10T06:08:17.037Z,4.57
2023-04-10T06:13:19.321Z,4.64
2023-04-10T06:18:22.210Z,4.82
2023-04-10T06:23:25.064Z,5.06
2023-04-10T06:28:27.377Z,5.26
2023-04-10T06:33:30.545Z,4.98
2023-04-10T06:38:37.557Z,5.02
2023-04-10T06:43:39.881Z,5.47
2023-04-10T06:48:43.118Z,5.57
2023-04-10T06:53:45.508Z,5.88
2023-04-10T06:58:47.765Z,5.80
2023-04-10T07:03:50.120Z,5.76
2023-04-10T07:08:52.982Z,6.11
2023-04-10T07:13:58.410Z,6.43
2023-04-10T07:19:01.121Z,6.66
2023-04-10T07:24:03.445Z,7.05
2023-04-10T07:29:05.776Z,7.26
2023-04-10T07:34:08.151Z,7.45
2023-04-10T07:39:10.431Z,7.22
2023-04-10T07:44:13.303Z,7.52
2023-04-10T07:49:15.625Z,7.80
2023-04-10T07:54:18.017Z,7.64
2023-04-10T07:59:21.194Z,7.59
2023-04-10T08:04:24.644Z,7.90
2023-04-10T08:09:27.129Z,8.16
2023-04-10T08:14:29.884Z,8.30
2023-04-10T08:19:32.193Z,8.24
2023-04-10T08:24:34.923Z,8.74
2023-04-10T08:29:38.063Z,9.08
2023-04-10T08:34:41.243Z,9.40
2023-04-10T08:39:43.988Z,8.51
2023-04-10T08:44:46.832Z,8.93
2023-04-10T08:49:49.570Z,9.27
2023-04-10T08:54:51.986Z,9.62
2023-04-10T08:59:54.399Z,9.77
2023-04-10T09:04:57.507Z,10.22
2023-04-10T09:09:59.811Z,10.59
2023-04-10T09:15:02.137Z,9.88
2023-04-10T09:20:04.858Z,10.38
2023-04-10T09:25:08.011Z,9.67
2023-04-10T09:30:11.135Z,9.93
2023-04-10T09:35:14.243Z,9.95
2023-04-10T09:40:16.854Z,10.32
2023-04-10T09:45:20.438Z,11.03
2023-04-10T09:50:23.063Z,11.43
2023-04-10T09:55:26.449Z,10.79
2023-04-10T10:00:28.848Z,11.08
2023-04-10T10:05:32.078Z,10.94
2023-04-10T10:10:35.300Z,11.15
2023-04-10T10:15:39.628Z,11.13
2023-04-10T10:20:43.555Z,11.60
2023-04-10T10:25:46.394Z,11.70
2023-04-10T10:30:48.802Z,11.42
2023-04-10T10:35:51.936Z,10.97
2023-04-10T10:40:54.219Z,11.24
2023-04-10T10:45:56.626Z,11.20
2023-04-10T10:50:59.393Z,11.52
2023-04-10T10:56:01.701Z,11.71
2023-04-10T11:01:04.253Z,11.59
2023-04-10T11:06:07.123Z,11.43
2023-04-10T11:11:09.806Z,11.32
2023-04-10T11:16:14.281Z,11.88
2023-04-10T11:21:17.313Z,12.16
2023-04-10T11:26:20.181Z,12.28
2023-04-10T11:31:24.030Z,12.41
2023-04-10T11:36:26.816Z,12.24
2023-04-10T11:41:30.503Z,11.57
2023-04-10T11:46:33.059Z,11.70
2023-04-10T11:51:35.496Z,11.80
2023-04-10T11:56:37.871Z,12.13
2023-04-10T12:01:42.763Z,12.14
2023-04-10T12:06:46.927Z,12.19
2023-04-10T12:11:49.385Z,12.18
2023-04-10T12:16:52.782Z,12.33
2023-04-10T12:21:55.349Z,12.17
2023-04-10T12:27:00.321Z,12.35
2023-04-10T12:32:03.949Z,12.33
2023-04-10T12:37:06.499Z,12.59
2023-04-10T12:42:09.768Z,12.38
2023-04-10T12:47:12.880Z,12.83
2023-04-10T12:52:16.160Z,13.21
2023-04-10T12:57:18.582Z,12.62
2023-04-10T13:02:22.048Z,13.21
2023-04-10T13:07:24.669Z,13.27
2023-04-10T13:12:27.214Z,13.14
2023-04-10T13:17:29.568Z,12.85
2023-04-10T13:22:32.345Z,13.32
2023-04-10T13:27:34.630Z,13.82
2023-04-10T13:32:37.272Z,13.34
2023-04-10T13:37:39.806Z,13.60
2023-04-10T13:42:42.707Z,13.33
2023-04-10T13:47:45.438Z,13.29
2023-04-10T13:52:48.583Z,13.56
2023-04-10T13:57:50.932Z,13.93
2023-04-10T14:02:54.333Z,13.66
2023-04-10T14:07:57.136Z,13.63
2023-04-10T14:13:11.405Z,13.78
2023-04-10T14:18:14.815Z,13.59
2023-04-10T14:23:18.511Z,13.76
2023-04-10T14:28:29.331Z,13.81
2023-04-10T14:33:32.961Z,13.80
2023-04-10T14:38:36.660Z,13.95
2023-04-10T14:43:41.184Z,14.09
2023-04-10T14:48:44.184Z,14.03
2023-04-10T14:53:46.737Z,13.83
2023-04-10T14:58:49.149Z,13.74
2023-04-10T15:03:51.713Z,13.73
2023-04-10T15:08:55.383Z,13.77
2023-04-10T15:13:58.109Z,13.80
2023-04-10T15:19:00.827Z,13.60
2023-04-10T15:24:04.318Z,13.50
2023-04-10T15:29:07.703Z,13.43
2023-04-10T15:34:10.366Z,13.10
2023-04-10T15:39:13.100Z,13.19
2023-04-10T15:44:15.839Z,13.15
2023-04-10T15:49:29.904Z,13.30
2023-04-10T15:54:36.741Z,13.13
2023-04-10T15:59:39.271Z,13.09
2023-04-10T16:04:42.246Z,12.78
2023-04-10T16:09:46.172Z,12.77
2023-04-10T16:14:48.968Z,12.48
2023-04-10T16:19:51.397Z,12.37
2023-04-10T16:24:54.032Z,12.35
2023-04-10T16:29:56.584Z,12.29
2023-04-10T16:34:58.945Z,12.28
2023-04-10T16:40:02.014Z,12.27
2023-04-10T16:45:04.414Z,12.20
2023-04-10T16:50:07.194Z,12.07
2023-04-10T16:55:10.352Z,12.04
2023-04-10T17:00:14.685Z,12.01
2023-04-10T17:05:18.175Z,11.85
2023-04-10T17:10:21.045Z,11.81
2023-04-10T17:15:23.818Z,11.74
2023-04-10T17:20:26.615Z,11.68
2023-04-10T17:25:30.174Z,11.57
2023-04-10T17:30:32.501Z,11.48
2023-04-10T17:35:35.694Z,11.40
2023-04-10T17:40:38.349Z,11.37
2023-04-10T17:45:41.612Z,11.23
2023-04-10T17:50:46.091Z,11.09
2023-04-10T17:55:48.379Z,11.00
2023-04-10T18:00:50.814Z,10.86
2023-04-10T18:05:53.143Z,10.75
2023-04-10T18:10:55.820Z,10.66
2023-04-10T18:15:58.221Z,10.54
2023-04-10T18:21:00.515Z,10.42
2023-04-10T18:26:04.144Z,10.42
2023-04-10T18:31:08.559Z,10.38
2023-04-10T18:36:11.055Z,10.33
2023-04-10T18:41:13.766Z,10.26
2023-04-10T18:46:16.282Z,10.18
2023-04-10T18:51:20.368Z,9.94
2023-04-10T18:56:23.077Z,9.93
2023-04-10T19:01:28.231Z,9.88
2023-04-10T19:06:32.323Z,9.73
2023-04-10T19:11:35.434Z,9.59
2023-04-10T19:16:37.817Z,9.41
2023-04-10T19:21:40.210Z,9.40
2023-04-10T19:26:43.586Z,9.22
2023-04-10T19:31:45.952Z,9.19
2023-04-10T19:36:49.129Z,9.04
2023-04-10T19:41:51.485Z,8.97
2023-04-10T19:46:54.292Z,8.89
2023-04-10T19:51:57.054Z,8.81
2023-04-10T19:56:59.390Z,8.81
2023-04-10T20:02:02.143Z,8.75
2023-04-10T20:07:05.370Z,8.74
2023-04-10T20:12:08.454Z,8.85
2023-04-10T20:17:11.546Z,8.73
2023-04-10T20:22:19.336Z,8.61
2023-04-10T20:27:21.818Z,8.61
2023-04-10T20:32:24.458Z,8.69
2023-04-10T20:37:31.260Z,8.63
2023-04-10T20:42:33.623Z,8.60
2023-04-10T20:47:36.049Z,8.47
2023-04-10T20:52:38.699Z,8.40
2023-04-10T20:57:41.079Z,8.31
2023-04-10T21:02:44.069Z,8.28
2023-04-10T21:07:46.924Z,8.31
2023-04-10T21:12:50.028Z,8.28
2023-04-10T21:17:53.463Z,8.27
2023-04-10T21:22:56.054Z,8.16
2023-04-10T21:27:59.295Z,8.29
2023-04-10T21:33:02.088Z,8.27
2023-04-10T21:38:04.676Z,8.23
2023-04-10T21:43:07.021Z,8.28
2023-04-10T21:48:09.411Z,8.27
2023-04-10T21:53:11.868Z,8.25
2023-04-10T21:58:14.635Z,8.18
2023-04-10T22:03:19.998Z,8.10
2023-04-10T22:08:23.647Z,8.05
2023-04-10T22:13:30.963Z,8.12
2023-04-10T22:18:33.748Z,8.09
2023-04-10T22:23:36.178Z,8.17
2023-04-10T22:28:38.562Z,8.13
2023-04-10T22:33:41.057Z,8.17
2023-04-10T22:38:53.740Z,8.16
2023-04-10T22:43:56.281Z,8.10
2023-04-10T22:48:58.692Z,8.13
2023-04-10T22:54:01.381Z,8.10
2023-04-10T22:59:03.728Z,8.17
2023-04-10T23:04:06.884Z,8.11
2023-04-10T23:09:09.999Z,8.18
2023-04-10T23:14:12.751Z,8.19
2023-04-10T23:19:15.907Z,8.23
2023-04-10T23:24:22.987Z,8.18
2023-04-10T23:29:25.385Z,8.24
2023-04-10T23:34:28.592Z,8.33
2023-04-10T23:39:30.978Z,8.40
2023-04-10T23:44:33.345Z,8.46
2023-04-10T23:49:35.919Z,8.60
2023-04-10T23:54:38.283Z,8.67
2023-04-10T23:59:40.679Z,8.78
